createdAt,value
2022-10-20T00:01:58.699Z,101328.25
2022-10-20T00:04:25.828Z,101331.78
2022-10-20T00:06:52.996Z,101324.66
2022-10-20T00:09:20.096Z,101321.91
2022-10-20T00:11:47.285Z,101322.16
2022-10-20T00:14:14.475Z,101330.03
2022-10-20T00:16:41.675Z,101327.34
2022-10-20T00:19:09.499Z,101332.66
2022-10-20T00:21:36.704Z,101331.03
2022-10-20T00:24:03.911Z,101334.94
2022-10-20T00:26:31.850Z,101339.59
2022-10-20T00:29:01.333Z,101338.94
2022-10-20T00:31:28.506Z,101345.72
2022-10-20T00:33:55.642Z,101345.69
2022-10-20T00:36:23.510Z,101343.72
2022-10-20T00:38:51.673Z,101340.66
2022-10-20T00:41:20.838Z,101330.84
2022-10-20T00:43:52.599Z,101330.59
2022-10-20T00:46:21.335Z,101320.47
2022-10-20T00:48:50.227Z,101326.47
2022-10-20T00:51:19.941Z,101326.66
2022-10-20T00:53:48.748Z,101326.78
2022-10-20T00:56:15.865Z,101326.72
2022-10-20T00:58:43.547Z,101319.69
2022-10-20T01:01:11.776Z,101324.09
2022-10-20T01:03:45.807Z,101321.53
2022-10-20T01:06:14.318Z,101321.78
2022-10-20T01:08:41.529Z,101317.22
2022-10-20T01:11:27.612Z,101314.53
2022-10-20T01:14:00.703Z,101312.22
2022-10-20T01:16:30.505Z,101306.09
2022-10-20T01:19:07.919Z,101305.22
2022-10-20T01:21:45.869Z,101304.38
2022-10-20T01:24:13.006Z,101307.16
2022-10-20T01:26:56.965Z,101311.34
2022-10-20T01:29:33.988Z,101314.84
2022-10-20T01:32:01.196Z,101323.78
2022-10-20T01:34:31.642Z,101317.53
2022-10-20T01:36:58.722Z,101320.22
2022-10-20T01:39:31.271Z,101324.91
2022-10-20T01:42:08.241Z,101319.53
2022-10-20T01:44:36.368Z,101316.97
2022-10-20T01:47:03.861Z,101312.59
2022-10-20T01:49:30.958Z,101315.34
2022-10-20T01:51:58.166Z,101308.03
2022-10-20T01:54:29.579Z,101303.84
2022-10-20T01:57:26.404Z,101296.97
2022-10-20T01:59:56.517Z,101295.16
2022-10-20T02:02:43.025Z,101293.28
2022-10-20T02:05:12.953Z,101302.22
2022-10-20T02:07:42.194Z,101310.22
2022-10-20T02:10:24.365Z,101299.38
2022-10-20T02:12:54.118Z,101304.75
2022-10-20T02:15:24.103Z,101310.41
2022-10-20T02:17:55.096Z,101311.34
2022-10-20T02:20:22.277Z,101310.13
2022-10-20T02:22:49.554Z,101311.94
2022-10-20T02:25:16.764Z,101310.28
2022-10-20T02:27:46.958Z,101308.59
2022-10-20T02:30:16.044Z,101313.38
2022-10-20T02:32:44.241Z,101312.75
2022-10-20T02:35:14.310Z,101309.31
2022-10-20T02:37:41.618Z,101296.03
2022-10-20T02:40:09.084Z,101288.75
2022-10-20T02:42:36.285Z,101296.75
2022-10-20T02:45:03.761Z,101289.56
2022-10-20T02:47:30.883Z,101289.44
2022-10-20T02:49:57.964Z,101292.25
2022-10-20T02:52:25.065Z,101296.81
2022-10-20T02:54:52.218Z,101293.84
2022-10-20T02:57:19.361Z,101300.91
2022-10-20T02:59:46.544Z,101298.06
2022-10-20T03:02:13.748Z,101310.53
2022-10-20T03:04:40.917Z,101312.72
2022-10-20T03:07:07.971Z,101318.31
2022-10-20T03:09:35.078Z,101322.19
2022-10-20T03:12:02.453Z,101320.56
2022-10-20T03:14:29.590Z,101323.72
2022-10-20T03:16:56.696Z,101326.41
2022-10-20T03:19:23.857Z,101325.44
2022-10-20T03:21:50.974Z,101325.44
2022-10-20T03:24:18.071Z,101319.16
2022-10-20T03:26:45.268Z,101318.69
2022-10-20T03:29:12.319Z,101330.34
2022-10-20T03:31:39.475Z,101327.06
2022-10-20T03:34:06.650Z,101318.81
2022-10-20T03:36:33.912Z,101317.06
2022-10-20T03:39:01.099Z,101323.97
2022-10-20T03:41:28.214Z,101328.53
2022-10-20T03:43:55.327Z,101324.19
2022-10-20T03:46:22.565Z,101317.75
2022-10-20T03:48:49.793Z,101331.22
2022-10-20T03:51:17.172Z,101330.41
2022-10-20T03:53:44.373Z,101335.63
2022-10-20T03:56:15.469Z,101340.16
2022-10-20T03:58:42.617Z,101342.03
2022-10-20T04:01:13.637Z,101340.34
2022-10-20T04:03:40.940Z,101338.53
2022-10-20T04:06:08.065Z,101338.59
2022-10-20T04:08:35.261Z,101336.13
2022-10-20T04:11:02.428Z,101342.22
2022-10-20T04:13:29.530Z,101344.22
2022-10-20T04:15:56.656Z,101338.84
2022-10-20T04:18:23.812Z,101348.47
2022-10-20T04:20:50.884Z,101345.72
2022-10-20T04:23:18.078Z,101344.75
2022-10-20T04:25:48.781Z,101344.91
2022-10-20T04:28:16.810Z,101352.03
2022-10-20T04:30:44.331Z,101349.47
2022-10-20T04:33:11.929Z,101347.66
2022-10-20T04:35:39.409Z,101345.84
2022-10-20T04:38:06.864Z,101344.09
2022-10-20T04:40:34.101Z,101350.06
2022-10-20T04:43:01.235Z,101352.75
2022-10-20T04:45:28.703Z,101350.13
2022-10-20T04:47:56.817Z,101341.16
2022-10-20T04:50:24.004Z,101346.53
2022-10-20T04:53:07.542Z,101352.84
2022-10-20T04:55:35.379Z,101348.13
2022-10-20T04:58:02.690Z,101352.56
2022-10-20T05:00:29.926Z,101358.19
2022-10-20T05:02:57.149Z,101360.06
2022-10-20T05:05:24.320Z,101350.13
2022-10-20T05:07:51.446Z,101354.56
2022-10-20T05:10:20.743Z,101360.88
2022-10-20T05:12:47.826Z,101360.94
2022-10-20T05:15:15.526Z,101359.19
2022-10-20T05:17:42.682Z,101360.19
2022-10-20T05:20:09.918Z,101360.19
2022-10-20T05:22:37.352Z,101362.25
2022-10-20T05:27:52.201Z,101353.53
2022-10-20T05:30:19.378Z,101354.28
2022-10-20T05:32:47.050Z,101354.38
2022-10-20T05:35:14.275Z,101356.28
2022-10-20T05:37:41.516Z,101360.63
2022-10-20T05:40:09.085Z,101354.41
2022-10-20T05:42:36.580Z,101361.59
2022-10-20T05:45:04.580Z,101358.53
2022-10-20T05:47:31.717Z,101363.91
2022-10-20T05:49:58.984Z,101362.25
2022-10-20T05:52:26.097Z,101367.88
2022-10-20T05:54:53.157Z,101360.94
2022-10-20T05:57:20.205Z,101367.25
2022-10-20T05:59:47.356Z,101373.50
2022-10-20T06:02:14.425Z,101386.78
2022-10-20T06:04:41.543Z,101378.78
2022-10-20T06:07:11.346Z,101384.91
2022-10-20T06:09:38.982Z,101386.84
2022-10-20T06:12:06.345Z,101385.91
2022-10-20T06:14:33.475Z,101394.66
2022-10-20T06:17:00.603Z,101395.53
2022-10-20T06:19:27.801Z,101395.66
2022-10-20T06:21:54.955Z,101402.00
2022-10-20T06:24:22.888Z,101408.25
2022-10-20T06:26:50.118Z,101399.81
2022-10-20T06:29:18.059Z,101397.72
2022-10-20T06:31:46.525Z,101401.50
2022-10-20T06:34:14.811Z,101402.69
2022-10-20T06:36:42.385Z,101398.56
2022-10-20T06:39:11.622Z,101393.63
2022-10-20T06:41:39.258Z,101398.69
2022-10-20T06:44:09.007Z,101398.00
2022-10-20T06:46:37.001Z,101398.63
2022-10-20T06:49:05.474Z,101397.31
2022-10-20T06:51:33.290Z,101406.91
2022-10-20T06:54:00.574Z,101416.47
2022-10-20T06:56:29.268Z,101416.28
2022-10-20T06:58:56.950Z,101425.94
2022-10-20T07:01:42.586Z,101424.13
2022-10-20T07:04:16.101Z,101433.19
2022-10-20T07:06:44.043Z,101432.72
2022-10-20T07:09:15.380Z,101423.34
2022-10-20T07:11:42.706Z,101425.16
2022-10-20T07:14:12.260Z,101417.63
2022-10-20T07:16:39.332Z,101423.53
2022-10-20T07:19:06.403Z,101419.94
2022-10-20T07:21:36.523Z,101427.34
2022-10-20T07:24:07.918Z,101425.19
2022-10-20T07:26:38.062Z,101421.16
2022-10-20T07:29:05.348Z,101414.75
2022-10-20T07:31:36.612Z,101419.19
2022-10-20T07:34:23.401Z,101420.66
2022-10-20T07:36:51.719Z,101409.53
2022-10-20T07:39:18.884Z,101409.06
2022-10-20T07:41:48.470Z,101420.22
2022-10-20T07:44:16.281Z,101413.31
2022-10-20T07:46:43.989Z,101417.66
2022-10-20T07:51:58.351Z,101416.81
2022-10-20T07:54:25.574Z,101420.94
2022-10-20T07:56:53.086Z,101425.06
2022-10-20T07:59:20.184Z,101419.56
2022-10-20T08:01:47.786Z,101421.13
2022-10-20T08:04:18.732Z,101419.78
2022-10-20T08:06:47.287Z,101426.53
2022-10-20T08:09:14.450Z,101439.75
2022-10-20T08:11:41.609Z,101440.22
2022-10-20T08:14:08.694Z,101438.22
2022-10-20T08:16:37.818Z,101435.88
2022-10-20T08:19:27.431Z,101445.72
2022-10-20T08:21:54.612Z,101442.09
2022-10-20T08:24:23.160Z,101430.59
2022-10-20T08:26:50.811Z,101426.06
2022-10-20T08:29:18.057Z,101419.56
2022-10-20T08:31:45.198Z,101426.72
2022-10-20T08:34:12.302Z,101426.97
2022-10-20T08:36:39.435Z,101430.03
2022-10-20T08:39:06.700Z,101433.97
2022-10-20T08:41:55.449Z,101438.16
2022-10-20T08:44:26.009Z,101441.22
2022-10-20T08:46:53.429Z,101433.50
2022-10-20T08:49:23.471Z,101432.13
2022-10-20T08:51:51.084Z,101437.88
2022-10-20T08:54:18.828Z,101444.16
2022-10-20T08:56:46.421Z,101445.94
2022-10-20T08:59:25.408Z,101448.47
2022-10-20T09:01:52.958Z,101443.06
2022-10-20T09:04:27.630Z,101450.94
2022-10-20T09:06:58.433Z,101450.75
2022-10-20T09:09:25.901Z,101446.09
2022-10-20T09:11:56.060Z,101454.75
2022-10-20T09:14:23.219Z,101459.19
2022-10-20T09:17:00.337Z,101461.75
2022-10-20T09:19:28.559Z,101460.06
2022-10-20T09:22:02.174Z,101454.06
2022-10-20T09:24:30.134Z,101451.09
2022-10-20T09:27:16.541Z,101450.59
2022-10-20T09:29:45.430Z,101451.19
2022-10-20T09:32:56.321Z,101457.84
2022-10-20T09:35:14.428Z,101445.78
2022-10-20T09:37:44.112Z,101442.81
2022-10-20T09:40:15.397Z,101441.31
2022-10-20T09:42:49.649Z,101441.06
2022-10-20T09:45:21.745Z,101456.75
2022-10-20T09:47:52.473Z,101450.19
2022-10-20T09:50:43.731Z,101446.97
2022-10-20T09:53:17.883Z,101453.63
2022-10-20T09:55:46.604Z,101446.53
2022-10-20T09:58:22.133Z,101441.06
2022-10-20T10:01:09.596Z,101440.28
2022-10-20T10:03:41.106Z,101438.38
2022-10-20T10:06:25.496Z,101435.28
2022-10-20T10:08:52.818Z,101436.53
2022-10-20T10:11:21.331Z,101438.38
2022-10-20T10:13:53.088Z,101440.31
2022-10-20T10:16:21.324Z,101436.00
2022-10-20T10:18:56.562Z,101428.41
2022-10-20T10:21:23.849Z,101436.53
2022-10-20T10:27:00.087Z,101429.22
2022-10-20T10:29:29.235Z,101430.56
2022-10-20T10:32:16.677Z,101428.75
2022-10-20T10:34:47.000Z,101427.91
2022-10-20T10:37:34.917Z,101425.53
2022-10-20T10:40:11.809Z,101430.28
2022-10-20T10:42:46.881Z,101431.06
2022-10-20T10:45:32.836Z,101423.34
2022-10-20T10:48:19.013Z,101425.50
2022-10-20T10:50:49.148Z,101426.03
2022-10-20T10:53:23.899Z,101416.84
2022-10-20T10:55:51.243Z,101409.47
2022-10-20T10:58:21.106Z,101404.25
2022-10-20T11:00:48.357Z,101399.91
2022-10-20T11:03:15.555Z,101396.03
2022-10-20T11:05:55.586Z,101395.56
2022-10-20T11:08:30.156Z,101384.66
2022-10-20T11:11:01.308Z,101380.31
2022-10-20T11:13:43.300Z,101392.22
2022-10-20T11:16:13.225Z,101382.34
2022-10-20T11:18:49.699Z,101385.84
2022-10-20T11:21:34.295Z,101378.31
2022-10-20T11:24:42.715Z,101375.59
2022-10-20T11:27:11.289Z,101368.22
2022-10-20T11:29:38.470Z,101373.25
2022-10-20T11:32:10.640Z,101374.09
2022-10-20T11:34:46.749Z,101368.91
2022-10-20T11:37:19.948Z,101366.28
2022-10-20T11:39:56.635Z,101355.44
2022-10-20T11:42:28.299Z,101354.66
2022-10-20T11:44:56.866Z,101348.94
2022-10-20T11:47:30.230Z,101350.69
2022-10-20T11:49:58.384Z,101349.66
2022-10-20T11:52:45.049Z,101339.75
2022-10-20T11:55:18.366Z,101334.25
2022-10-20T11:58:01.283Z,101335.69
2022-10-20T12:00:31.291Z,101337.63
2022-10-20T12:03:21.648Z,101341.50
2022-10-20T12:05:52.002Z,101333.94
2022-10-20T12:08:30.635Z,101325.81
2022-10-20T12:11:16.932Z,101320.19
2022-10-20T12:13:53.182Z,101323.38
2022-10-20T12:16:38.822Z,101323.09
2022-10-20T12:19:15.205Z,101312.44
2022-10-20T12:22:01.109Z,101294.31
2022-10-20T12:24:34.283Z,101295.50
2022-10-20T12:27:05.195Z,101282.31
2022-10-20T12:29:32.303Z,101282.00
2022-10-20T12:32:21.081Z,101280.03
2022-10-20T12:34:49.281Z,101276.78
2022-10-20T12:37:20.778Z,101275.59
2022-10-20T12:39:47.989Z,101272.88
2022-10-20T12:42:31.030Z,101266.47
2022-10-20T12:45:08.311Z,101269.88
2022-10-20T12:47:36.955Z,101275.31
2022-10-20T12:50:19.564Z,101267.00
2022-10-20T12:52:47.004Z,101270.19
2022-10-20T12:55:18.543Z,101270.00
2022-10-20T12:57:46.079Z,101265.34
2022-10-20T13:00:19.348Z,101268.81
2022-10-20T13:03:26.192Z,101257.94
2022-10-20T13:05:53.523Z,101251.13
2022-10-20T13:08:22.977Z,101251.41
2022-10-20T13:10:50.430Z,101249.69
2022-10-20T13:13:17.481Z,101253.66
2022-10-20T13:15:44.586Z,101241.72
2022-10-20T13:18:11.880Z,101256.84
2022-10-20T13:20:45.119Z,101253.75
2022-10-20T13:23:16.557Z,101262.13
2022-10-20T13:25:45.008Z,101254.38
2022-10-20T13:28:18.478Z,101245.25
2022-10-20T13:30:55.011Z,101242.44
2022-10-20T13:33:38.821Z,101246.59
2022-10-20T13:36:15.606Z,101251.44
2022-10-20T13:39:03.429Z,101249.53
2022-10-20T13:41:40.865Z,101240.09
2022-10-20T13:44:23.254Z,101241.66
2022-10-20T13:47:06.882Z,101247.69
2022-10-20T13:49:34.054Z,101250.69
2022-10-20T13:52:06.015Z,101245.47
2022-10-20T13:54:35.888Z,101254.13
2022-10-20T13:57:03.689Z,101246.19
2022-10-20T13:59:31.269Z,101256.72
2022-10-20T14:02:00.498Z,101255.41
2022-10-20T14:04:30.082Z,101251.13
2022-10-20T14:07:09.962Z,101246.81
2022-10-20T14:09:39.548Z,101243.56
2022-10-20T14:12:16.768Z,101251.78
2022-10-20T14:14:45.147Z,101252.47
2022-10-20T14:17:19.298Z,101257.31
2022-10-20T14:19:46.961Z,101250.78
2022-10-20T14:22:23.123Z,101247.38
2022-10-20T14:24:51.430Z,101245.47
2022-10-20T14:27:26.618Z,101240.22
2022-10-20T14:29:54.144Z,101246.94
2022-10-20T14:32:23.391Z,101256.63
2022-10-20T14:34:57.072Z,101244.72
2022-10-20T14:37:32.712Z,101246.75
2022-10-20T14:40:05.077Z,101243.38
2022-10-20T14:42:33.524Z,101251.63
2022-10-20T14:45:02.040Z,101255.38
2022-10-20T14:47:33.265Z,101259.28
2022-10-20T14:50:00.468Z,101254.06
2022-10-20T14:52:32.076Z,101252.38
2022-10-20T14:54:59.437Z,101255.97
2022-10-20T14:57:43.267Z,101245.34
2022-10-20T15:00:30.527Z,101234.66
2022-10-20T15:02:58.833Z,101234.53
2022-10-20T15:05:26.105Z,101244.19
2022-10-20T15:07:53.920Z,101239.69
2022-10-20T15:10:22.807Z,101245.06
2022-10-20T15:12:52.147Z,101246.19
2022-10-20T15:15:23.833Z,101246.69
2022-10-20T15:17:52.602Z,101235.41
2022-10-20T15:20:34.745Z,101232.09
2022-10-20T15:23:25.446Z,101227.75
2022-10-20T15:26:04.462Z,101226.13
2022-10-20T15:28:38.967Z,101228.94
2022-10-20T15:31:26.636Z,101223.69
2022-10-20T15:33:55.061Z,101227.38
2022-10-20T15:36:29.911Z,101225.63
2022-10-20T15:38:57.463Z,101218.56
2022-10-20T15:41:26.200Z,101222.31
2022-10-20T15:43:53.858Z,101220.78
2022-10-20T15:46:21.437Z,101219.25
2022-10-20T15:48:48.947Z,101224.06
2022-10-20T15:51:16.224Z,101222.53
2022-10-20T15:53:46.011Z,101220.84
2022-10-20T15:56:13.247Z,101211.09
2022-10-20T15:58:40.504Z,101203.19
2022-10-20T16:01:08.041Z,101203.28
2022-10-20T16:03:35.807Z,101212.53
2022-10-20T16:06:21.616Z,101207.44
2022-10-20T16:08:49.962Z,101213.03
2022-10-20T16:11:18.343Z,101218.63
2022-10-20T16:13:45.633Z,101216.13
2022-10-20T16:16:15.010Z,101219.97
2022-10-20T16:18:42.350Z,101219.31
2022-10-20T16:21:09.534Z,101218.63
2022-10-20T16:23:40.771Z,101227.88
2022-10-20T16:26:13.066Z,101233.50
2022-10-20T16:28:40.357Z,101222.88
2022-10-20T16:31:08.680Z,101225.84
2022-10-20T16:33:36.148Z,101225.06
2022-10-20T16:38:40.487Z,101223.44
2022-10-20T16:41:09.902Z,101221.84
2022-10-20T16:43:40.924Z,101222.03
2022-10-20T16:46:09.027Z,101227.63
2022-10-20T16:48:37.817Z,101222.38
2022-10-20T16:51:06.398Z,101216.28
2022-10-20T16:53:33.985Z,101225.38
2022-10-20T16:56:01.430Z,101224.59
2022-10-20T16:58:28.606Z,101217.53
2022-10-20T17:00:56.559Z,101218.69
2022-10-20T17:03:23.781Z,101219.81
2022-10-20T17:05:55.193Z,101219.91
2022-10-20T17:08:22.354Z,101224.44
2022-10-20T17:10:54.625Z,101231.78
2022-10-20T17:13:21.776Z,101227.44
2022-10-20T17:15:48.953Z,101222.13
2022-10-20T17:18:16.095Z,101232.06
2022-10-20T17:20:43.423Z,101234.78
2022-10-20T17:23:10.724Z,101245.66
2022-10-20T17:25:38.121Z,101243.50
2022-10-20T17:28:05.295Z,101241.16
2022-10-20T17:30:32.480Z,101233.25
2022-10-20T17:32:59.669Z,101236.88
2022-10-20T17:35:28.345Z,101246.91
2022-10-20T17:37:55.479Z,101240.09
2022-10-20T17:40:22.817Z,101230.44
2022-10-20T17:42:50.001Z,101229.28
2022-10-20T17:45:17.207Z,101219.44
2022-10-20T17:47:44.303Z,101222.16
2022-10-20T17:50:11.517Z,101215.28
2022-10-20T17:52:39.241Z,101219.72
2022-10-20T17:55:06.875Z,101225.31
2022-10-20T17:57:33.998Z,101231.84
2022-10-20T18:00:04.915Z,101230.63
2022-10-20T18:02:36.740Z,101234.88
2022-10-20T18:05:04.542Z,101240.47
2022-10-20T18:07:31.744Z,101233.06
2022-10-20T18:09:59.072Z,101237.06
2022-10-20T18:12:26.198Z,101240.53
2022-10-20T18:14:53.327Z,101243.84
2022-10-20T18:17:20.504Z,101244.06
2022-10-20T18:19:47.656Z,101248.56
2022-10-20T18:22:14.702Z,101251.41
2022-10-20T18:24:41.773Z,101253.66
2022-10-20T18:27:09.048Z,101252.09
2022-10-20T18:29:36.202Z,101255.94
2022-10-20T18:32:03.369Z,101252.63
2022-10-20T18:34:30.540Z,101248.38
2022-10-20T18:36:57.755Z,101249.25
2022-10-20T18:39:24.894Z,101251.88
2022-10-20T18:41:52.495Z,101247.81
2022-10-20T18:44:19.717Z,101243.53
2022-10-20T18:46:47.492Z,101251.09
2022-10-20T18:49:16.035Z,101246.66
2022-10-20T18:51:44.765Z,101245.88
2022-10-20T18:54:12.423Z,101248.19
2022-10-20T18:56:39.878Z,101246.63
2022-10-20T18:59:08.462Z,101250.03
2022-10-20T19:01:37.271Z,101251.84
2022-10-20T19:04:04.903Z,101242.00
2022-10-20T19:06:33.427Z,101229.56
2022-10-20T19:09:02.272Z,101237.47
2022-10-20T19:11:30.673Z,101234.38
2022-10-20T19:13:58.509Z,101248.91
2022-10-20T19:16:26.993Z,101234.78
2022-10-20T19:18:55.613Z,101225.34
2022-10-20T19:21:23.278Z,101222.66
2022-10-20T19:23:58.441Z,101222.25
2022-10-20T19:26:27.401Z,101219.84
2022-10-20T19:28:58.611Z,101218.38
2022-10-20T19:31:39.552Z,101217.81
2022-10-20T19:34:15.946Z,101222.81
2022-10-20T19:36:46.526Z,101222.94
2022-10-20T19:39:19.405Z,101220.00
2022-10-20T19:41:49.737Z,101232.88
2022-10-20T19:44:17.956Z,101242.78
2022-10-20T19:46:46.947Z,101238.53
2022-10-20T19:49:14.920Z,101249.47
2022-10-20T19:51:42.365Z,101244.34
2022-10-20T19:54:09.881Z,101252.59
2022-10-20T19:56:38.030Z,101245.00
2022-10-20T19:59:24.001Z,101251.00
2022-10-20T20:01:52.578Z,101251.78
2022-10-20T20:04:20.236Z,101244.72
2022-10-20T20:06:48.045Z,101248.56
2022-10-20T20:09:18.679Z,101242.28
2022-10-20T20:11:46.301Z,101245.47
2022-10-20T20:14:15.342Z,101241.75
2022-10-20T20:16:46.757Z,101247.69
2022-10-20T20:19:15.658Z,101248.97
2022-10-20T20:21:43.132Z,101254.09
2022-10-20T20:24:11.372Z,101260.38
2022-10-20T20:26:38.681Z,101261.09
2022-10-20T20:29:06.023Z,101262.75
2022-10-20T20:31:33.674Z,101248.41
2022-10-20T20:34:00.793Z,101263.34
2022-10-20T20:36:28.267Z,101261.41
2022-10-20T20:38:57.557Z,101262.19
2022-10-20T20:41:26.727Z,101259.44
2022-10-20T20:43:54.049Z,101265.63
2022-10-20T20:46:22.741Z,101261.19
2022-10-20T20:48:50.494Z,101260.22
2022-10-20T20:51:17.770Z,101272.06
2022-10-20T20:53:44.940Z,101270.00
2022-10-20T20:56:13.397Z,101261.59
2022-10-20T20:58:41.934Z,101263.69
2022-10-20T21:01:17.183Z,101270.53
2022-10-20T21:03:44.455Z,101280.44
2022-10-20T21:06:14.006Z,101268.94
2022-10-20T21:08:42.082Z,101279.00
2022-10-20T21:11:10.786Z,101271.16
2022-10-20T21:13:38.598Z,101279.50
2022-10-20T21:16:19.710Z,101286.78
2022-10-20T21:18:48.320Z,101283.94
2022-10-20T21:21:16.527Z,101279.97
2022-10-20T21:23:43.703Z,101285.06
2022-10-20T21:26:11.480Z,101282.75
2022-10-20T21:28:39.166Z,101283.94
2022-10-20T21:31:07.266Z,101275.28
2022-10-20T21:33:35.422Z,101277.16
2022-10-20T21:36:04.028Z,101273.69
2022-10-20T21:38:32.106Z,101267.34
2022-10-20T21:41:06.819Z,101273.69
2022-10-20T21:43:35.129Z,101270.28
2022-10-20T21:46:21.989Z,101266.56
2022-10-20T21:48:50.743Z,101263.22
2022-10-20T21:51:19.633Z,101267.69
2022-10-20T21:53:47.322Z,101265.19
2022-10-20T21:56:15.456Z,101264.41
2022-10-20T21:58:42.680Z,101249.19
2022-10-20T22:01:14.216Z,101257.97
2022-10-20T22:03:42.004Z,101254.50
2022-10-20T22:06:10.134Z,101256.69
2022-10-20T22:08:38.154Z,101251.22
2022-10-20T22:11:06.007Z,101246.47
2022-10-20T22:13:33.588Z,101245.44
2022-10-20T22:16:01.085Z,101242.91
2022-10-20T22:18:28.388Z,101243.13
2022-10-20T22:20:55.560Z,101245.13
2022-10-20T22:23:22.899Z,101245.19
2022-10-20T22:25:53.808Z,101246.06
2022-10-20T22:28:20.969Z,101236.25
2022-10-20T22:30:48.159Z,101240.03
2022-10-20T22:33:15.366Z,101239.94
2022-10-20T22:35:42.731Z,101241.63
2022-10-20T22:38:09.907Z,101240.75
2022-10-20T22:40:37.107Z,101243.28
2022-10-20T22:43:04.283Z,101239.66
2022-10-20T22:45:31.669Z,101235.84
2022-10-20T22:47:58.896Z,101232.03
2022-10-20T22:50:26.173Z,101222.50
2022-10-20T22:52:53.291Z,101230.59
2022-10-20T22:55:20.403Z,101225.28
2022-10-20T22:57:48.537Z,101223.72
2022-10-20T23:00:16.522Z,101223.06
2022-10-20T23:02:43.657Z,101221.31
2022-10-20T23:05:10.998Z,101230.34
2022-10-20T23:07:38.567Z,101227.88
2022-10-20T23:10:06.401Z,101221.63
2022-10-20T23:12:52.317Z,101219.56
2022-10-20T23:15:19.500Z,101227.50
2022-10-20T23:17:47.058Z,101226.63
2022-10-20T23:20:14.249Z,101213.78
2022-10-20T23:22:41.384Z,101216.25
2022-10-20T23:25:08.883Z,101206.41
2022-10-20T23:27:36.866Z,101202.84
2022-10-20T23:30:04.715Z,101195.63
2022-10-20T23:32:31.854Z,101193.09
2022-10-20T23:34:59.021Z,101197.75
2022-10-20T23:37:26.257Z,101204.75
2022-10-20T23:39:53.510Z,101199.34
2022-10-20T23:42:20.721Z,101202.13
2022-10-20T23:44:48.711Z,101195.94
2022-10-20T23:47:16.832Z,101198.78
2022-10-20T23:49:44.073Z,101200.63
2022-10-20T23:52:11.225Z,101209.50
2022-10-20T23:54:38.456Z,101210.38
2022-10-20T23:57:05.630Z,101214.66
2022-10-20T23:59:32.789Z,101220.19
